EW9672 Weather Reports


time (UTC)temp
C
wind
direction
speed
KPH
gust
KPH
rain 1hr
cm
rain 24hr
cm
rain mn
cm
humidity
%
barometer
mb
20200229073217 17 337 3.2 4.8 0.00 0.00 0.00 43 1014.9
20200229072216 17 337 4.8 6.4 0.00 0.00 0.00 42 1014.7
20200229071338 17 337 4.8 6.4 0.00 0.00 0.00 41 1014.8
20200229070218 17 337 4.8 6.4 0.00 0.00 0.00 41 1014.9
20200229065216 17 315 4.8 8.0 0.00 0.00 0.00 42 1015.1
20200229064216 17 315 4.8 6.4 0.00 0.00 0.00 45 1015.2
20200229063216 17 315 4.8 4.8 0.00 0.00 0.00 43 1015.0
20200229062216 17 315 4.8 6.4 0.00 0.00 0.00 45 1014.9
20200229061216 17 315 6.4 6.4 0.00 0.00 0.00 45 1014.9
20200229060216 17 315 3.2 3.2 0.00 0.00 0.00 43 1014.8
20200229055216 17 315 3.2 4.8 0.00 0.00 0.00 42 1015.0
20200229054216 18 270 6.4 9.7 0.00 0.00 0.00 45 1015.2
20200229053215 17 270 6.4 6.4 0.00 0.00 0.00 47 1015.3
20200229052215 17 270 4.8 6.4 0.00 0.00 0.00 47 1015.2
20200229051216 17 270 3.2 4.8 0.00 0.00 0.00 48 1015.5
20200229050216 17 270 3.2 4.8 0.00 0.00 0.00 51 1015.3
20200229045216 17 270 4.8 4.8 0.00 0.00 0.00 49 1015.2
20200229044216 18 270 1.6 3.2 0.00 0.00 0.00 44 1015.1
20200229043216 19 270 3.2 3.2 0.00 0.00 0.00 42 1015.2
20200229042216 20 0.0 0.0 0.00 0.00 0.00 36 1014.9
20200229041215 20 270 3.2 3.2 0.00 0.00 0.00 35
20200229040216 20 270 1.6 3.2 0.00 0.00 0.00 36
20200229035215 20 270 1.6 3.2 0.00 0.00 0.00 38
20200229034216 20 270 1.6 3.2 0.00 0.00 0.00 42
20200229033215 20 0.0 0.0 0.00 0.00 0.00 41
20200229032216 20 270 1.6 3.2 0.00 0.00 0.00 42
20200229031216 20 315 4.8 4.8 0.00 0.00 0.00 41
20200229030215 20 315 4.8 6.4 0.00 0.00 0.00 40
20200229025215 21 0 6.4 8.0 0.00 0.00 0.00 35
20200229024215 22 112 3.2 4.8 0.00 0.00 0.00 32
20200229023216 22 90 4.8 6.4 0.00 0.00 0.00 34
20200229022215 22 0.0 0.0 0.00 0.00 0.00 33
20200229021215 23 90 4.8 6.4 0.00 0.00 0.00 32
20200229020215 23 90 6.4 9.7 0.00 0.00 0.00 31
20200229015216 23 112 9.7 11.3 0.00 0.00 0.00 30
20200229014215 24 112 8.0 11.3 0.00 0.00 0.00 26 1014.1
20200229013215 25 112 8.0 8.0 0.00 0.00 0.00 24 1014.1
20200229012215 25 135 4.8 6.4 0.00 0.00 0.00 22 1014.2
20200229011215 26 135 4.8 6.4 0.00 0.00 0.00 20
20200229010216 26 135 6.4 8.0 0.00 0.00 0.00 20
20200229005215 26 135 6.4 11.3 0.00 0.00 0.00 20
20200229004215 27 135 6.4 8.0 0.00 0.00 0.00 20
20200229003215 27 157 8.0 9.7 0.00 0.00 0.00 19
20200229002215 27 157 6.4 8.0 0.00 0.00 0.00 19
20200229001217 27 157 9.7 12.9 0.00 0.00 0.00 19
20200229000217 27 157 11.3 14.5 0.00 0.00 0.00 19
20200228235217 27 157 8.0 12.9 0.00 0.00 0.00 20
20200228234217 28 157 9.7 14.5 0.00 0.00 0.00 20
20200228233217 28 157 11.3 16.1 0.00 0.00 0.00 19
20200228232217 28 157 14.5 19.3 0.00 0.00 0.00 19
20200228231217 28 157 12.9 19.3 0.00 0.00 0.00 19
20200228230217 28 157 14.5 17.7 0.00 0.00 0.00 18
20200228225217 28 180 11.3 12.9 0.00 0.00 0.00 18
20200228224217 29 180 12.9 16.1 0.00 0.00 0.00 20
20200228223217 29 202 12.9 16.1 0.00 0.00 0.00 18
20200228222217 29 180 14.5 19.3 0.00 0.00 0.00 14 1014.2
20200228221217 30 180 12.9 17.7 0.00 0.00 0.00 12 1014.0
20200228220217 30 202 12.9 19.3 0.00 0.00 0.00 12 1014.1
20200228215217 30 202 14.5 17.7 0.00 0.00 0.00 13 1014.2
20200228214217 30 202 12.9 16.1 0.00 0.00 0.00 13 1014.2
20200228213218 30 180 16.1 22.5 0.00 0.00 0.00 14 1014.2
20200228212217 30 202 14.5 20.9 0.00 0.00 0.00 16 1014.1
20200228211216 31 180 16.1 20.9 0.00 0.00 0.00 16 1013.8
20200228210217 31 180 11.3 16.1 0.00 0.00 0.00 16 1013.8
20200228205217 31 157 11.3 14.5 0.00 0.00 0.00 14 1013.8
20200228204216 30 180 9.7 14.5 0.00 0.00 0.00 14 1014.0
20200228203217 30 135 12.9 17.7 0.00 0.00 0.00 14 1014.3
20200228202217 30 180 8.0 11.3 0.00 0.00 0.00 14 1014.4
20200228201216 30 202 4.8 8.0 0.00 0.00 0.00 14 1014.4
20200228200217 29 225 4.8 6.4 0.00 0.00 0.00 15 1014.7
20200228195217 28 202 4.8 6.4 0.00 0.00 0.00 15 1014.7
20200228194216 28 157 6.4 8.0 0.00 0.00 0.00 16 1014.8
20200228193216 28 180 8.0 11.3 0.00 0.00 0.00 16 1015.1
20200228192217 27 157 8.0 9.7 0.00 0.00 0.00 16 1015.3
20200228191216 27 135 8.0 12.9 0.00 0.00 0.00 16 1015.6
20200228190216 27 270 3.2 3.2 0.00 0.00 0.00 22 1015.8
20200228185217 26 270 4.8 6.4 0.00 0.00 0.00 22 1016.1
20200228184216 26 270 1.6 4.8 0.00 0.00 0.00 22 1016.4
20200228183216 25 292 3.2 4.8 0.00 0.00 0.00 23 1016.5
20200228182216 25 292 3.2 4.8 0.00 0.00 0.00 26 1016.7
20200228181216 24 0 3.2 4.8 0.00 0.00 0.00 30 1016.7
20200228180216 23 0 4.8 6.4 0.00 0.00 0.00 32 1016.7
20200228175216 23 337 3.2 6.4 0.00 0.00 0.00 33 1016.8
20200228174216 22 0 6.4 8.0 0.00 0.00 0.00 35 1016.8
20200228173216 21 0 3.2 6.4 0.00 0.00 0.00 37 1016.9
20200228172216 21 0 3.2 3.2 0.00 0.00 0.00 37 1017.0
20200228171216 20 0 6.4 8.0 0.00 0.00 0.00 37 1017.0
20200228170216 20 0 4.8 6.4 0.00 0.00 0.00 38 1016.8
20200228165216 19 0 6.4 9.7 0.00 0.00 0.00 41 1016.8
20200228164216 18 0 6.4 8.0 0.00 0.00 0.00 43 1016.7
20200228163217 18 0 6.4 8.0 0.00 0.00 0.00 44 1016.6
20200228162216 18 0 6.4 6.4 0.00 0.00 0.00 44 1016.6
20200228161216 -17 0.0 0.0 0.00 0.00 0.00
20200228160201 -17 0.0 0.0 0.00 0.00 0.00
20200228155616 -17 0.0 0.0 0.00 0.00 0.00
20200228154600 -17 0.0 0.0 0.00 0.00 0.00
20200228154440 -17 0.0 0.0 0.00 0.00 0.00
20200228153716 -17 0.0 0.0 0.00 0.00 0.00
20200228152748 -17 0.0 0.0 0.00 0.00 0.00
20200228152216 -17 0.0 0.0 0.00 0.00 0.00
20200228151200 -17 0.0 0.0 0.00 0.00 0.00
20200228151017 -17 0.0 0.0 0.00 0.00 0.00
20200228150416 -17 0.0 0.0 0.00 0.00 0.00
20200228145449 -17 0.0 0.0 0.00 0.00 0.00
20200228145317 -17 0.0 0.0 0.00 0.00 0.00
20200228144616 -17 0.0 0.0 0.00 0.00 0.00
20200228143644 -17 0.0 0.0 0.00 0.00 0.00
20200228143017 -17 0.0 0.0 0.00 0.00 0.00
20200228142053 -17 0.0 0.0 0.00 0.00 0.00
20200228141935 -17 0.0 0.0 0.00 0.00 0.00
20200228141316 -17 0.0 0.0 0.00 0.00 0.00
20200228140333 -17 0.0 0.0 0.00 0.00 0.00
20200228135615 -17 0.0 0.0 0.00 0.00 0.00
20200228134652 -17 0.0 0.0 0.00 0.00 0.00
20200228134535 12 0.0 0.0 0.00 0.00 0.00 50 1014.8
20200228134415 12 0.0 0.0 0.00 0.00 0.00 50 1014.7
20200228134256 12 0.0 0.0 0.00 0.00 0.00 50 1014.8
20200228134204 12 0.0 0.0 0.00 0.00 0.00 50 1014.8
20200228133938 12 0.0 0.0 0.00 0.00 0.00 50 1014.8
20200228133748 12 0.0 0.0 0.00 0.00 0.00 50 1014.8
20200228133015 12 0.0 0.0 0.00 0.00 0.00 51 1014.9
20200228132016 12 0 1.6 1.6 0.00 0.00 0.00 50 1014.9
20200228131317 -17 0.0 0.0 0.00 0.00 0.00
20200228130444 -17 0.0 0.0 0.00 0.00 0.00
20200228125716 -17 0.0 0.0 0.00 0.00 0.00
20200228124748 -17 0.0 0.0 0.00 0.00 0.00
20200228124216 -17 0.0 0.0 0.00 0.00 0.00
20200228123215 -17 0.0 0.0 0.00 0.00 0.00
20200228122220 -17 0.0 0.0 0.00 0.00 0.00
20200228121259 -17 0.0 0.0 0.00 0.00 0.00
20200228120515 -17 0.0 0.0 0.00 0.00 0.00
20200228115543 -17 0.0 0.0 0.00 0.00 0.00
20200228114816 -17 0.0 0.0 0.00 0.00 0.00
20200228113817 -17 0.0 0.0 0.00 0.00 0.00
20200228113216 -17 0.0 0.0 0.00 0.00 0.00
20200228112202 -17 0.0 0.0 0.00 0.00 0.00
20200228111515 -17 0.0 0.0 0.00 0.00 0.00
20200228110551 -17 0.0 0.0 0.00 0.00 0.00
20200228105815 -17 0.0 0.0 0.00 0.00 0.00
20200228104848 -17 0.0 0.0 0.00 0.00 0.00
20200228104716 -17 0.0 0.0 0.00 0.00 0.00
20200228104115 -17 0.0 0.0 0.00 0.00 0.00
20200228103149 -17 0.0 0.0 0.00 0.00 0.00
20200228103017 15 0.0 0.0 0.00 0.00 0.00 41 1013.6
20200228102854 15 0.0 0.0 0.00 0.00 0.00 41 1013.6
20200228102730 15 0.0 0.0 0.00 0.00 0.00 41 1013.6
20200228102612 15 0.0 0.0 0.00 0.00 0.00 41 1013.6
20200228102454 15 0.0 0.0 0.00 0.00 0.00 41 1013.7
20200228102232 15 0.0 0.0 0.00 0.00 0.00 41 1013.7
20200228102015 15 315 6.4 8.0 0.00 0.00 0.00 41 1013.7
20200228101015 14 315 9.7 11.3 0.00 0.00 0.00 40 1013.6
20200228100015 15 315 8.0 11.3 0.00 0.00 0.00 39 1013.8
20200228095019 15 315 8.0 11.3 0.00 0.00 0.00 38 1013.8
20200228094017 15 292 9.7 11.3 0.00 0.00 0.00 40 1013.8
20200228093015 15 292 6.4 8.0 0.00 0.00 0.00 41 1013.9
20200228092017 16 315 8.0 8.0 0.00 0.00 0.00 38 1013.7
20200228091017 16 0 4.8 6.4 0.00 0.00 0.00 38 1013.9
20200228090017 16 0 3.2 4.8 0.00 0.00 0.00 37 1013.9
20200228085017 16 0 6.4 8.0 0.00 0.00 0.00 36 1014.0
20200228084017 16 337 6.4 8.0 0.00 0.00 0.00 36 1014.0
20200228083017 16 337 4.8 6.4 0.00 0.00 0.00 35 1014.4
20200228082017 16 337 1.6 3.2 0.00 0.00 0.00 35 1014.6
20200228081017 17 337 6.4 6.4 0.00 0.00 0.00 34 1014.6
20200228080017 17 337 8.0 9.7 0.00 0.00 0.00 33 1014.5
20200228075017 17 315 8.0 9.7 0.00 0.00 0.00 33 1014.5